sensor_id;sensor_type;location;lat;lon;timestamp;pressure;altitude;pressure_sealevel;temperature;humidity
70589;BME280;58152;49.202;18.744;2023-02-18T00:02:02;97363.09;;;4.40;83.06
70589;BME280;58152;49.202;18.744;2023-02-18T00:04:28;97360.56;;;4.37;83.58
70589;BME280;58152;49.202;18.744;2023-02-18T00:06:53;97356.19;;;4.40;83.56
70589;BME280;58152;49.202;18.744;2023-02-18T00:09:19;97352.69;;;4.41;83.22
70589;BME280;58152;49.202;18.744;2023-02-18T00:11:44;97350.09;;;4.41;83.00
70589;BME280;58152;49.202;18.744;2023-02-18T00:14:12;97344.00;;;4.42;83.00
70589;BME280;58152;49.202;18.744;2023-02-18T00:16:38;97344.94;;;4.38;83.40
70589;BME280;58152;49.202;18.744;2023-02-18T00:19:06;97343.25;;;4.37;83.02
70589;BME280;58152;49.202;18.744;2023-02-18T00:21:33;97345.78;;;4.39;83.07
70589;BME280;58152;49.202;18.744;2023-02-18T00:23:59;97353.63;;;4.37;83.14
70589;BME280;58152;49.202;18.744;2023-02-18T00:26:25;97367.41;;;4.41;82.94
70589;BME280;58152;49.202;18.744;2023-02-18T00:28:50;97356.22;;;4.37;83.30
70589;BME280;58152;49.202;18.744;2023-02-18T00:31:27;97354.47;;;4.38;83.24
70589;BME280;58152;49.202;18.744;2023-02-18T00:33:52;97360.47;;;4.40;82.96
70589;BME280;58152;49.202;18.744;2023-02-18T00:36:19;97363.97;;;4.40;83.12
70589;BME280;58152;49.202;18.744;2023-02-18T00:38:47;97356.19;;;4.40;83.24
70589;BME280;58152;49.202;18.744;2023-02-18T00:41:13;97353.59;;;4.39;82.80
70589;BME280;58152;49.202;18.744;2023-02-18T00:43:38;97354.44;;;4.39;83.25
70589;BME280;58152;49.202;18.744;2023-02-18T00:46:04;97353.59;;;4.39;82.91
70589;BME280;58152;49.202;18.744;2023-02-18T00:48:30;97357.88;;;4.41;83.30
70589;BME280;58152;49.202;18.744;2023-02-18T00:50:56;97369.97;;;4.42;83.21
70589;BME280;58152;49.202;18.744;2023-02-18T00:53:21;97359.63;;;4.39;83.36
70589;BME280;58152;49.202;18.744;2023-02-18T00:55:47;97372.53;;;4.44;83.23
70589;BME280;58152;49.202;18.744;2023-02-18T00:58:14;97380.28;;;4.47;82.96
70589;BME280;58152;49.202;18.744;2023-02-18T01:00:40;97386.31;;;4.47;83.24
70589;BME280;58152;49.202;18.744;2023-02-18T01:03:07;97383.00;;;4.41;83.46
70589;BME280;58152;49.202;18.744;2023-02-18T01:05:33;97400.19;;;4.46;83.29
70589;BME280;58152;49.202;18.744;2023-02-18T01:07:59;97405.34;;;4.48;83.29
70589;BME280;58152;49.202;18.744;2023-02-18T01:10:24;97411.44;;;4.47;83.58
70589;BME280;58152;49.202;18.744;2023-02-18T01:12:50;97421.00;;;4.46;83.34
70589;BME280;58152;49.202;18.744;2023-02-18T01:15:16;97408.88;;;4.45;83.81
70589;BME280;58152;49.202;18.744;2023-02-18T01:17:42;97402.81;;;4.46;83.66
70589;BME280;58152;49.202;18.744;2023-02-18T01:20:09;97400.16;;;4.49;83.57
70589;BME280;58152;49.202;18.744;2023-02-18T01:22:34;97395.81;;;4.48;83.57
70589;BME280;58152;49.202;18.744;2023-02-18T01:25:00;97396.72;;;4.47;84.04
70589;BME280;58152;49.202;18.744;2023-02-18T01:27:25;97400.09;;;4.51;84.37
70589;BME280;58152;49.202;18.744;2023-02-18T01:29:51;97394.00;;;4.52;84.14
70589;BME280;58152;49.202;18.744;2023-02-18T01:32:16;97402.66;;;4.52;84.55
70589;BME280;58152;49.202;18.744;2023-02-18T01:34:42;97396.56;;;4.55;84.63
70589;BME280;58152;49.202;18.744;2023-02-18T01:37:07;97395.66;;;4.56;84.32
70589;BME280;58152;49.202;18.744;2023-02-18T01:39:33;97386.19;;;4.53;84.55
70589;BME280;58152;49.202;18.744;2023-02-18T01:41:58;97374.13;;;4.51;84.02
70589;BME280;58152;49.202;18.744;2023-02-18T01:44:26;97380.97;;;4.55;84.57
70589;BME280;58152;49.202;18.744;2023-02-18T01:46:52;97369.75;;;4.53;84.14
70589;BME280;58152;49.202;18.744;2023-02-18T01:51:53;97360.19;;;4.53;84.50
70589;BME280;58152;49.202;18.744;2023-02-18T01:54:26;97366.19;;;4.58;85.14
70589;BME280;58152;49.202;18.744;2023-02-18T01:57:05;97369.53;;;4.62;85.82
70589;BME280;58152;49.202;18.744;2023-02-18T01:59:36;97367.78;;;4.64;85.51
70589;BME280;58152;49.202;18.744;2023-02-18T02:02:03;97380.69;;;4.67;84.92
70589;BME280;58152;49.202;18.744;2023-02-18T02:04:31;97372.94;;;4.66;85.28
70589;BME280;58152;49.202;18.744;2023-02-18T02:06:56;97373.84;;;4.65;84.94
70589;BME280;58152;49.202;18.744;2023-02-18T02:09:24;97384.22;;;4.65;84.60
70589;BME280;58152;49.202;18.744;2023-02-18T02:14:45;97382.53;;;4.64;84.69
70589;BME280;58152;49.202;18.744;2023-02-18T02:17:22;97388.56;;;4.64;84.80
70589;BME280;58152;49.202;18.744;2023-02-18T02:37:24;97370.78;;;4.84;86.20
70589;BME280;58152;49.202;18.744;2023-02-18T02:45:18;97383.47;;;5.00;86.09
70589;BME280;58152;49.202;18.744;2023-02-18T02:47:48;97393.75;;;5.04;86.10
70589;BME280;58152;49.202;18.744;2023-02-18T02:50:40;97391.06;;;5.07;85.36
70589;BME280;58152;49.202;18.744;2023-02-18T02:53:26;97381.53;;;5.08;85.73
70589;BME280;58152;49.202;18.744;2023-02-18T02:55:52;97380.53;;;5.14;85.84
70589;BME280;58152;49.202;18.744;2023-02-18T02:58:21;97379.53;;;5.19;85.66
70589;BME280;58152;49.202;18.744;2023-02-18T03:17:31;97387.81;;;5.37;85.78
70589;BME280;58152;49.202;18.744;2023-02-18T03:20:08;97392.91;;;5.40;85.76
70589;BME280;58152;49.202;18.744;2023-02-18T03:22:46;97395.41;;;5.44;85.83
70589;BME280;58152;49.202;18.744;2023-02-18T03:25:13;97399.69;;;5.47;85.83
70589;BME280;58152;49.202;18.744;2023-02-18T03:27:44;97403.19;;;5.46;85.68
70589;BME280;58152;49.202;18.744;2023-02-18T03:30:19;97403.16;;;5.47;85.61
70589;BME280;58152;49.202;18.744;2023-02-18T03:32:48;97415.19;;;5.51;85.81
70589;BME280;58152;49.202;18.744;2023-02-18T03:35:17;97415.94;;;5.56;85.51
70589;BME280;58152;49.202;18.744;2023-02-18T03:38:19;97434.09;;;5.59;85.24
70589;BME280;58152;49.202;18.744;2023-02-18T03:40:46;97424.59;;;5.57;85.17
70589;BME280;58152;49.202;18.744;2023-02-18T03:43:11;97433.19;;;5.60;85.17
70589;BME280;58152;49.202;18.744;2023-02-18T03:45:37;97440.03;;;5.65;85.30
70589;BME280;58152;49.202;18.744;2023-02-18T03:48:03;97442.59;;;5.66;84.94
70589;BME280;58152;49.202;18.744;2023-02-18T03:50:29;97447.72;;;5.69;85.19
70589;BME280;58152;49.202;18.744;2023-02-18T03:52:54;97442.47;;;5.71;84.89
70589;BME280;58152;49.202;18.744;2023-02-18T03:55:19;97450.22;;;5.74;84.97
70589;BME280;58152;49.202;18.744;2023-02-18T03:57:45;97462.34;;;5.75;84.86
70589;BME280;58152;49.202;18.744;2023-02-18T04:00:11;97449.31;;;5.75;84.55
70589;BME280;58152;49.202;18.744;2023-02-18T04:02:37;97448.34;;;5.79;84.49
70589;BME280;58152;49.202;18.744;2023-02-18T04:05:02;97449.22;;;5.79;84.18
70589;BME280;58152;49.202;18.744;2023-02-18T04:07:27;97446.56;;;5.81;84.09
70589;BME280;58152;49.202;18.744;2023-02-18T04:09:55;97445.69;;;5.82;84.38
70589;BME280;58152;49.202;18.744;2023-02-18T04:12:21;97441.28;;;5.84;84.01
70589;BME280;58152;49.202;18.744;2023-02-18T04:14:46;97442.13;;;5.84;83.92
70589;BME280;58152;49.202;18.744;2023-02-18T04:17:12;97438.63;;;5.85;83.63
70589;BME280;58152;49.202;18.744;2023-02-18T04:19:37;97441.22;;;5.87;83.92
70589;BME280;58152;49.202;18.744;2023-02-18T04:22:03;97443.75;;;5.92;83.70
70589;BME280;58152;49.202;18.744;2023-02-18T04:24:28;97441.09;;;5.93;83.47
70589;BME280;58152;49.202;18.744;2023-02-18T04:26:53;97441.03;;;5.95;83.39
70589;BME280;58152;49.202;18.744;2023-02-18T04:29:19;97440.97;;;5.98;83.37
70589;BME280;58152;49.202;18.744;2023-02-18T04:31:44;97450.38;;;6.03;83.34
70589;BME280;58152;49.202;18.744;2023-02-18T04:34:10;97448.59;;;6.05;82.84
70589;BME280;58152;49.202;18.744;2023-02-18T04:36:35;97453.81;;;6.05;82.84
70589;BME280;58152;49.202;18.744;2023-02-18T04:39:01;97452.91;;;6.06;82.65
70589;BME280;58152;49.202;18.744;2023-02-18T04:41:26;97451.22;;;6.04;82.30
70589;BME280;58152;49.202;18.744;2023-02-18T04:43:51;97471.91;;;6.10;82.16
70589;BME280;58152;49.202;18.744;2023-02-18T04:46:17;97446.00;;;6.05;82.40
70589;BME280;58152;49.202;18.744;2023-02-18T04:48:42;97454.59;;;6.07;81.80
70589;BME280;58152;49.202;18.744;2023-02-18T04:51:08;97468.38;;;6.13;81.69
70589;BME280;58152;49.202;18.744;2023-02-18T04:53:33;97458.78;;;6.13;81.51
70589;BME280;58152;49.202;18.744;2023-02-18T04:55:59;97450.19;;;6.11;81.49
70589;BME280;58152;49.202;18.744;2023-02-18T04:58:25;97451.81;;;6.15;81.36
70589;BME280;58152;49.202;18.744;2023-02-18T05:00:50;97473.47;;;6.17;81.24
70589;BME280;58152;49.202;18.744;2023-02-18T05:03:17;97464.78;;;6.17;81.41
70589;BME280;58152;49.202;18.744;2023-02-18T05:05:42;97470.84;;;6.19;81.47
70589;BME280;58152;49.202;18.744;2023-02-18T05:08:08;97470.91;;;6.16;81.23
70589;BME280;58152;49.202;18.744;2023-02-18T05:10:33;97456.84;;;6.21;80.94
70589;BME280;58152;49.202;18.744;2023-02-18T05:12:59;97469.06;;;6.19;80.81
70589;BME280;58152;49.202;18.744;2023-02-18T05:15:25;97484.59;;;6.22;80.49
70589;BME280;58152;49.202;18.744;2023-02-18T05:17:50;97474.28;;;6.19;80.81
70589;BME280;58152;49.202;18.744;2023-02-18T05:20:16;97478.59;;;6.20;80.75
70589;BME280;58152;49.202;18.744;2023-02-18T05:22:41;97477.63;;;6.24;80.24
70589;BME280;58152;49.202;18.744;2023-02-18T05:25:07;97485.44;;;6.24;80.59
70589;BME280;58152;49.202;18.744;2023-02-18T05:27:33;97478.44;;;6.26;80.54
70589;BME280;58152;49.202;18.744;2023-02-18T05:29:58;97484.47;;;6.28;80.14
70589;BME280;58152;49.202;18.744;2023-02-18T05:32:23;97478.47;;;6.25;80.01
70589;BME280;58152;49.202;18.744;2023-02-18T05:34:49;97487.94;;;6.27;80.59
70589;BME280;58152;49.202;18.744;2023-02-18T05:37:14;97489.63;;;6.30;80.34
70589;BME280;58152;49.202;18.744;2023-02-18T05:39:42;97484.41;;;6.30;80.02
70589;BME280;58152;49.202;18.744;2023-02-18T05:42:08;97467.88;;;6.31;79.82
70589;BME280;58152;49.202;18.744;2023-02-18T05:44:33;97479.09;;;6.34;80.31
70589;BME280;58152;49.202;18.744;2023-02-18T05:47:01;97470.41;;;6.34;80.05
70589;BME280;58152;49.202;18.744;2023-02-18T05:49:28;97468.63;;;6.36;80.13
70589;BME280;58152;49.202;18.744;2023-02-18T05:51:54;97464.25;;;6.36;80.07
70589;BME280;58152;49.202;18.744;2023-02-18T05:54:19;97461.78;;;6.32;79.74
70589;BME280;58152;49.202;18.744;2023-02-18T05:56:45;97470.38;;;6.35;79.43
70589;BME280;58152;49.202;18.744;2023-02-18T05:59:10;97472.91;;;6.39;79.45
70589;BME280;58152;49.202;18.744;2023-02-18T06:01:36;97473.69;;;6.41;79.39
70589;BME280;58152;49.202;18.744;2023-02-18T06:04:01;97477.22;;;6.40;79.31
70589;BME280;58152;49.202;18.744;2023-02-18T06:06:27;97471.09;;;6.41;79.21
70589;BME280;58152;49.202;18.744;2023-02-18T06:08:52;97484.13;;;6.41;79.74
70589;BME280;58152;49.202;18.744;2023-02-18T06:11:18;97474.69;;;6.36;79.02
70589;BME280;58152;49.202;18.744;2023-02-18T06:13:43;97486.84;;;6.38;78.98
70589;BME280;58152;49.202;18.744;2023-02-18T06:16:09;97484.22;;;6.38;79.03
70589;BME280;58152;49.202;18.744;2023-02-18T06:18:34;97488.53;;;6.39;79.06
70589;BME280;58152;49.202;18.744;2023-02-18T06:21:00;97481.66;;;6.36;79.07
70589;BME280;58152;49.202;18.744;2023-02-18T06:23:25;97478.13;;;6.39;78.79
70589;BME280;58152;49.202;18.744;2023-02-18T06:25:50;97485.03;;;6.40;78.92
70589;BME280;58152;49.202;18.744;2023-02-18T06:28:19;97483.28;;;6.40;79.01
70589;BME280;58152;49.202;18.744;2023-02-18T06:30:46;97482.38;;;6.41;78.93
70589;BME280;58152;49.202;18.744;2023-02-18T06:33:14;97489.31;;;6.42;78.90
70589;BME280;58152;49.202;18.744;2023-02-18T06:35:39;97487.56;;;6.43;78.81
70589;BME280;58152;49.202;18.744;2023-02-18T06:38:05;97485.81;;;6.43;78.75
70589;BME280;58152;49.202;18.744;2023-02-18T06:40:30;97491.81;;;6.47;78.93
70589;BME280;58152;49.202;18.744;2023-02-18T06:42:56;97483.06;;;6.48;78.58
70589;BME280;58152;49.202;18.744;2023-02-18T06:45:22;97480.53;;;6.46;78.92
70589;BME280;58152;49.202;18.744;2023-02-18T06:47:47;97492.56;;;6.50;78.46
70589;BME280;58152;49.202;18.744;2023-02-18T06:50:13;97493.38;;;6.52;78.53
70589;BME280;58152;49.202;18.744;2023-02-18T06:52:38;97507.09;;;6.59;78.68
70589;BME280;58152;49.202;18.744;2023-02-18T06:55:05;97503.56;;;6.61;78.36
70589;BME280;58152;49.202;18.744;2023-02-18T06:57:30;97502.66;;;6.62;78.87
70589;BME280;58152;49.202;18.744;2023-02-18T06:59:56;97499.16;;;6.63;78.37
70589;BME280;58152;49.202;18.744;2023-02-18T07:02:23;97497.44;;;6.62;78.77
70589;BME280;58152;49.202;18.744;2023-02-18T07:04:49;97514.72;;;6.67;78.54
70589;BME280;58152;49.202;18.744;2023-02-18T07:07:14;97514.66;;;6.68;78.09
70589;BME280;58152;49.202;18.744;2023-02-18T07:09:45;97500.84;;;6.66;78.72
70589;BME280;58152;49.202;18.744;2023-02-18T07:12:11;97500.88;;;6.65;78.93
70589;BME280;58152;49.202;18.744;2023-02-18T07:14:37;97516.41;;;6.69;78.68
70589;BME280;58152;49.202;18.744;2023-02-18T07:17:02;97510.22;;;6.72;78.89
70589;BME280;58152;49.202;18.744;2023-02-18T07:19:30;97508.47;;;6.72;79.03
70589;BME280;58152;49.202;18.744;2023-02-18T07:21:57;97512.03;;;6.70;78.42
70589;BME280;58152;49.202;18.744;2023-02-18T07:24:23;97519.81;;;6.71;78.98
70589;BME280;58152;49.202;18.744;2023-02-18T07:26:48;97507.56;;;6.73;78.42
70589;BME280;58152;49.202;18.744;2023-02-18T07:29:14;97513.63;;;6.75;78.65
70589;BME280;58152;49.202;18.744;2023-02-18T07:31:40;97512.78;;;6.73;79.00
70589;BME280;58152;49.202;18.744;2023-02-18T07:34:05;97523.19;;;6.75;78.94
70589;BME280;58152;49.202;18.744;2023-02-18T07:36:31;97514.53;;;6.74;78.61
70589;BME280;58152;49.202;18.744;2023-02-18T07:38:56;97517.88;;;6.78;78.57
70589;BME280;58152;49.202;18.744;2023-02-18T07:41:22;97524.03;;;6.75;78.69
70589;BME280;58152;49.202;18.744;2023-02-18T07:43:48;97525.81;;;6.75;78.76
70589;BME280;58152;49.202;18.744;2023-02-18T07:46:14;97527.44;;;6.77;78.95
70589;BME280;58152;49.202;18.744;2023-02-18T07:48:39;97522.22;;;6.79;78.39
70589;BME280;58152;49.202;18.744;2023-02-18T07:51:09;97528.19;;;6.82;78.34
70589;BME280;58152;49.202;18.744;2023-02-18T07:53:35;97510.88;;;6.80;78.75
70589;BME280;58152;49.202;18.744;2023-02-18T07:56:02;97529.94;;;6.82;79.03
70589;BME280;58152;49.202;18.744;2023-02-18T07:58:30;97523.88;;;6.81;78.71
70589;BME280;58152;49.202;18.744;2023-02-18T08:00:56;97514.28;;;6.82;78.34
70589;BME280;58152;49.202;18.744;2023-02-18T08:03:29;97518.69;;;6.80;78.58
70589;BME280;58152;49.202;18.744;2023-02-18T08:05:55;97528.19;;;6.82;78.41
70589;BME280;58152;49.202;18.744;2023-02-18T08:08:24;97524.69;;;6.83;78.50
70589;BME280;58152;49.202;18.744;2023-02-18T08:10:51;97515.13;;;6.84;78.05
70589;BME280;58152;49.202;18.744;2023-02-18T08:13:17;97522.03;;;6.85;78.05
70589;BME280;58152;49.202;18.744;2023-02-18T08:15:42;97517.63;;;6.87;77.98
70589;BME280;58152;49.202;18.744;2023-02-18T08:18:14;97500.25;;;6.86;77.31
70589;BME280;58152;49.202;18.744;2023-02-18T08:20:40;97506.38;;;6.85;77.53
70589;BME280;58152;49.202;18.744;2023-02-18T08:23:05;97506.34;;;6.86;77.25
70589;BME280;58152;49.202;18.744;2023-02-18T08:25:31;97498.50;;;6.86;77.06
70589;BME280;58152;49.202;18.744;2023-02-18T08:27:58;97501.09;;;6.88;76.79
70589;BME280;58152;49.202;18.744;2023-02-18T08:30:24;97498.50;;;6.88;76.73
70589;BME280;58152;49.202;18.744;2023-02-18T08:32:49;97492.41;;;6.87;77.15
70589;BME280;58152;49.202;18.744;2023-02-18T08:35:15;97482.00;;;6.87;76.52
70589;BME280;58152;49.202;18.744;2023-02-18T08:37:40;97486.25;;;6.90;76.15
70589;BME280;58152;49.202;18.744;2023-02-18T08:40:06;97495.75;;;6.93;76.31
70589;BME280;58152;49.202;18.744;2023-02-18T08:42:32;97503.53;;;6.94;76.12
70589;BME280;58152;49.202;18.744;2023-02-18T08:44:57;97488.78;;;6.93;75.72
70589;BME280;58152;49.202;18.744;2023-02-18T08:47:23;97502.59;;;6.97;75.74
70589;BME280;58152;49.202;18.744;2023-02-18T08:49:48;97507.69;;;7.00;74.98
70589;BME280;58152;49.202;18.744;2023-02-18T08:52:13;97511.09;;;7.03;75.26
70589;BME280;58152;49.202;18.744;2023-02-18T08:54:39;97498.94;;;7.02;75.18
70589;BME280;58152;49.202;18.744;2023-02-18T08:57:04;97514.34;;;7.11;74.89
70589;BME280;58152;49.202;18.744;2023-02-18T08:59:30;97516.03;;;7.12;74.31
70589;BME280;58152;49.202;18.744;2023-02-18T09:01:55;97515.13;;;7.13;74.40
70589;BME280;58152;49.202;18.744;2023-02-18T09:04:21;97522.03;;;7.16;74.73
70589;BME280;58152;49.202;18.744;2023-02-18T09:06:47;97509.00;;;7.14;74.42
70589;BME280;58152;49.202;18.744;2023-02-18T09:09:14;97531.63;;;7.16;74.13
70589;BME280;58152;49.202;18.744;2023-02-18T09:11:40;97521.13;;;7.17;73.85
70589;BME280;58152;49.202;18.744;2023-02-18T09:14:06;97514.09;;;7.19;73.47
70589;BME280;58152;49.202;18.744;2023-02-18T09:16:31;97517.47;;;7.23;73.20
70589;BME280;58152;49.202;18.744;2023-02-18T09:18:56;97520.06;;;7.24;74.03
70589;BME280;58152;49.202;18.744;2023-02-18T09:21:23;97523.41;;;7.28;74.20
70589;BME280;58152;49.202;18.744;2023-02-18T09:23:49;97513.06;;;7.25;73.92
70589;BME280;58152;49.202;18.744;2023-02-18T09:26:17;97519.03;;;7.28;73.64
70589;BME280;58152;49.202;18.744;2023-02-18T09:28:45;97495.53;;;7.28;73.77
70589;BME280;58152;49.202;18.744;2023-02-18T09:31:16;97498.94;;;7.32;73.98
70589;BME280;58152;49.202;18.744;2023-02-18T09:33:44;97493.56;;;7.36;73.74
70589;BME280;58152;49.202;18.744;2023-02-18T09:36:10;97496.94;;;7.40;74.04
70589;BME280;58152;49.202;18.744;2023-02-18T09:38:36;97499.47;;;7.43;73.67
70589;BME280;58152;49.202;18.744;2023-02-18T09:41:04;97489.91;;;7.42;73.87
70589;BME280;58152;49.202;18.744;2023-02-18T09:43:40;97485.59;;;7.41;74.12
70589;BME280;58152;49.202;18.744;2023-02-18T09:46:42;97492.50;;;7.44;74.12
70589;BME280;58152;49.202;18.744;2023-02-18T09:49:18;97480.38;;;7.41;73.98
70589;BME280;58152;49.202;18.744;2023-02-18T09:51:45;97474.25;;;7.42;74.44
70589;BME280;58152;49.202;18.744;2023-02-18T09:54:14;97473.38;;;7.43;74.74
70589;BME280;58152;49.202;18.744;2023-02-18T09:56:43;97472.47;;;7.44;75.00
70589;BME280;58152;49.202;18.744;2023-02-18T09:59:16;97476.78;;;7.45;75.23
70589;BME280;58152;49.202;18.744;2023-02-18T10:01:44;97471.59;;;7.44;75.20
70589;BME280;58152;49.202;18.744;2023-02-18T10:06:50;97469.78;;;7.46;75.25
70589;BME280;58152;49.202;18.744;2023-02-18T10:09:24;97479.31;;;7.48;75.82
70589;BME280;58152;49.202;18.744;2023-02-18T10:11:59;97474.09;;;7.48;76.42
70589;BME280;58152;49.202;18.744;2023-02-18T10:14:27;97481.94;;;7.47;76.33
70589;BME280;58152;49.202;18.744;2023-02-18T10:16:54;97475.88;;;7.46;76.64
70589;BME280;58152;49.202;18.744;2023-02-18T10:19:23;97468.03;;;7.46;76.53
70589;BME280;58152;49.202;18.744;2023-02-18T10:21:51;97467.25;;;7.44;77.44
70589;BME280;58152;49.202;18.744;2023-02-18T10:24:31;97459.34;;;7.46;77.17
70589;BME280;58152;49.202;18.744;2023-02-18T10:26:57;97445.50;;;7.44;77.45
70589;BME280;58152;49.202;18.744;2023-02-18T10:29:23;97439.53;;;7.40;77.82
70589;BME280;58152;49.202;18.744;2023-02-18T10:32:03;97450.75;;;7.42;78.06
70589;BME280;58152;49.202;18.744;2023-02-18T10:34:50;97443.88;;;7.39;78.49
70589;BME280;58152;49.202;18.744;2023-02-18T10:37:43;97436.97;;;7.38;78.86
70589;BME280;58152;49.202;18.744;2023-02-18T10:50:52;97403.34;;;7.28;78.32
70589;BME280;58152;49.202;18.744;2023-02-18T10:53:37;97395.59;;;7.26;77.77
70589;BME280;58152;49.202;18.744;2023-02-18T10:56:05;97385.16;;;7.26;78.04
70589;BME280;58152;49.202;18.744;2023-02-18T10:58:36;97385.16;;;7.26;77.45
70589;BME280;58152;49.202;18.744;2023-02-18T11:01:12;97387.81;;;7.25;77.77
70589;BME280;58152;49.202;18.744;2023-02-18T11:03:47;97389.44;;;7.27;77.89
70589;BME280;58152;49.202;18.744;2023-02-18T11:06:36;97391.22;;;7.27;77.70
70589;BME280;58152;49.202;18.744;2023-02-18T11:09:03;97384.22;;;7.27;77.55
70589;BME280;58152;49.202;18.744;2023-02-18T11:11:33;97379.00;;;7.27;77.56
70589;BME280;58152;49.202;18.744;2023-02-18T11:14:02;97381.63;;;7.27;77.67
70589;BME280;58152;49.202;18.744;2023-02-18T11:16:40;97372.03;;;7.28;77.46
70589;BME280;58152;49.202;18.744;2023-02-18T11:22:32;97366.09;;;7.24;76.82
70589;BME280;58152;49.202;18.744;2023-02-18T11:25:02;97372.16;;;7.25;77.15
70589;BME280;58152;49.202;18.744;2023-02-18T11:27:41;97374.75;;;7.25;76.69
70589;BME280;58152;49.202;18.744;2023-02-18T11:30:29;97374.75;;;7.25;76.70
70589;BME280;58152;49.202;18.744;2023-02-18T11:33:00;97368.69;;;7.24;77.13
70589;BME280;58152;49.202;18.744;2023-02-18T11:35:29;97353.03;;;7.24;76.82
70589;BME280;58152;49.202;18.744;2023-02-18T11:37:57;97351.84;;;7.34;77.18
70589;BME280;58152;49.202;18.744;2023-02-18T11:40:34;97352.53;;;7.39;76.61
70589;BME280;58152;49.202;18.744;2023-02-18T11:43:06;97350.78;;;7.40;76.64
70589;BME280;58152;49.202;18.744;2023-02-18T11:45:35;97343.03;;;7.37;76.43
70589;BME280;58152;49.202;18.744;2023-02-18T11:48:06;97348.25;;;7.37;76.42
70589;BME280;58152;49.202;18.744;2023-02-18T11:50:33;97350.00;;;7.36;76.66
70589;BME280;58152;49.202;18.744;2023-02-18T11:52:59;97343.09;;;7.35;77.18
70589;BME280;58152;49.202;18.744;2023-02-18T11:55:27;97331.88;;;7.32;77.03
70589;BME280;58152;49.202;18.744;2023-02-18T11:58:03;97334.41;;;7.35;77.08
70589;BME280;58152;49.202;18.744;2023-02-18T12:02:55;97321.38;;;7.35;77.76
70589;BME280;58152;49.202;18.744;2023-02-18T12:05:26;97321.38;;;7.35;78.02
70589;BME280;58152;49.202;18.744;2023-02-18T12:08:02;97311.97;;;7.29;77.95
70589;BME280;58152;49.202;18.744;2023-02-18T12:10:58;97307.63;;;7.30;77.55
70589;BME280;58152;49.202;18.744;2023-02-18T12:13:50;97296.31;;;7.29;78.42
70589;BME280;58152;49.202;18.744;2023-02-18T12:22:18;97284.91;;;7.32;77.94
70589;BME280;58152;49.202;18.744;2023-02-18T12:27:37;97280.69;;;7.28;78.36
70589;BME280;58152;49.202;18.744;2023-02-18T12:35:46;97262.59;;;7.23;78.70
70589;BME280;58152;49.202;18.744;2023-02-18T12:38:32;97263.50;;;7.22;78.57
70589;BME280;58152;49.202;18.744;2023-02-18T12:43:59;97252.31;;;7.19;79.21
70589;BME280;58152;49.202;18.744;2023-02-18T13:02:46;97189.81;;;7.16;78.97
70589;BME280;58152;49.202;18.744;2023-02-18T13:10:53;97189.13;;;7.10;79.32
70589;BME280;58152;49.202;18.744;2023-02-18T13:13:32;97182.16;;;7.09;79.00
70589;BME280;58152;49.202;18.744;2023-02-18T13:16:05;97183.13;;;7.07;79.72
70589;BME280;58152;49.202;18.744;2023-02-18T13:18:37;97171.88;;;7.05;79.60
70589;BME280;58152;49.202;18.744;2023-02-18T13:21:07;97173.66;;;7.04;79.44
70589;BME280;58152;49.202;18.744;2023-02-18T13:23:44;97170.25;;;7.02;79.47
70589;BME280;58152;49.202;18.744;2023-02-18T13:26:13;97180.53;;;7.07;79.61
70589;BME280;58152;49.202;18.744;2023-02-18T13:28:45;97161.13;;;7.14;80.43
70589;BME280;58152;49.202;18.744;2023-02-18T13:31:26;97159.22;;;7.19;80.64
70589;BME280;58152;49.202;18.744;2023-02-18T13:34:12;97150.44;;;7.22;79.95
70589;BME280;58152;49.202;18.744;2023-02-18T13:37:05;97140.91;;;7.21;79.60
70589;BME280;58152;49.202;18.744;2023-02-18T13:39:33;97134.00;;;7.20;79.86
70589;BME280;58152;49.202;18.744;2023-02-18T13:47:39;97126.22;;;7.18;80.51
70589;BME280;58152;49.202;18.744;2023-02-18T13:55:34;97115.03;;;7.14;79.81
70589;BME280;58152;49.202;18.744;2023-02-18T13:58:04;97113.31;;;7.13;80.04
70589;BME280;58152;49.202;18.744;2023-02-18T14:00:39;97118.53;;;7.13;79.69
70589;BME280;58152;49.202;18.744;2023-02-18T14:06:22;97101.25;;;7.11;80.55
70589;BME280;58152;49.202;18.744;2023-02-18T14:08:48;97101.28;;;7.09;80.51
70589;BME280;58152;49.202;18.744;2023-02-18T14:13:55;97080.41;;;7.09;80.04
70589;BME280;58152;49.202;18.744;2023-02-18T14:19:37;97070.16;;;7.05;80.17
70589;BME280;58152;49.202;18.744;2023-02-18T14:27:39;97037.06;;;7.07;81.22
70589;BME280;58152;49.202;18.744;2023-02-18T14:30:16;97050.84;;;7.10;80.61
70589;BME280;58152;49.202;18.744;2023-02-18T14:32:44;97043.03;;;7.10;81.19
70589;BME280;58152;49.202;18.744;2023-02-18T14:43:06;97030.84;;;7.09;80.56
70589;BME280;58152;49.202;18.744;2023-02-18T14:50:53;97012.38;;;7.16;81.68
70589;BME280;58152;49.202;18.744;2023-02-18T14:53:22;97007.03;;;7.19;81.69
70589;BME280;58152;49.202;18.744;2023-02-18T14:55:52;97013.16;;;7.18;81.12
70589;BME280;58152;49.202;18.744;2023-02-18T15:00:54;97001.78;;;7.20;81.60
70589;BME280;58152;49.202;18.744;2023-02-18T15:03:20;97001.66;;;7.23;82.00
70589;BME280;58152;49.202;18.744;2023-02-18T15:05:48;96997.25;;;7.25;82.51
70589;BME280;58152;49.202;18.744;2023-02-18T15:15:42;96979.78;;;7.49;83.47
70589;BME280;58152;49.202;18.744;2023-02-18T15:18:30;96988.22;;;7.56;83.20
70589;BME280;58152;49.202;18.744;2023-02-18T15:21:00;96968.97;;;7.58;82.70
70589;BME280;58152;49.202;18.744;2023-02-18T15:23:26;96969.09;;;7.55;82.89
70589;BME280;58152;49.202;18.744;2023-02-18T15:25:53;96957.78;;;7.55;82.93
70589;BME280;58152;49.202;18.744;2023-02-18T15:28:24;96959.38;;;7.59;83.03
70589;BME280;58152;49.202;18.744;2023-02-18T15:30:50;96960.13;;;7.62;83.09
70589;BME280;58152;49.202;18.744;2023-02-18T15:33:18;96961.81;;;7.63;83.47
70589;BME280;58152;49.202;18.744;2023-02-18T15:35:45;96972.31;;;7.62;83.77
70589;BME280;58152;49.202;18.744;2023-02-18T15:38:18;96967.84;;;7.66;84.28
70589;BME280;58152;49.202;18.744;2023-02-18T15:40:49;96972.88;;;7.70;84.32